Terminal Aerodrome Forecast
Issued by NWS Charleston, SC

Home | Current Version | Previous Version | Text Only | Print | Product List | Glossary On
Versions: 1 2 3 4 5 6 7 8 9 10 11 12 13
000
FTUS42 KCHS 062335
TAFCHS
TAF
KCHS 062335Z 0700/0724 05008KT P6SM BKN200
     FM070500 36009KT P6SM BKN200
     FM071200 02012G18KT P6SM SCT025 BKN045
     FM071500 01015G23KT 4SM -SHRA BR SCT015 OVC025
     FM071800 35015KT P6SM SCT025 OVC040=

USA.gov is the U.S. government's official web portal to all federal, state and local government web resources and services.